Aviation Digital Data Service (ADDS)

Output produced by METARs form (0341 UTC 26 June 2019)
found at http://www.aviationweather.gov/metar/data/
 
METAR text: RJSF 260300Z 21007KT 150V240 9999 FEW035 27/17 Q1015
Conditions at: RJSF (FUKUSHIMA ARPT , JP) observed 0300 UTC 26 June 2019
Temperature: 27.0°C (81°F)
Dewpoint: 17.0°C (63°F) [RH = 54%]
Pressure (altimeter): 29.97 inches Hg (1015.0 mb)
Winds: from the SSW (210 degrees) at 8 MPH (7 knots; 3.6 m/s)
Visibility: 6 or more miles (10+ km)
Ceiling: at least 12,000 feet AGL
Clouds: few clouds at 3500 feet AGL
Weather: no significant weather observed at this time

METAR text: RJSF 260200Z 20006KT 9999 FEW030 26/18 Q1015
Conditions at: RJSF (FUKUSHIMA ARPT , JP) observed 0200 UTC 26 June 2019
Temperature: 26.0°C (79°F)
Dewpoint: 18.0°C (64°F) [RH = 61%]
Pressure (altimeter): 29.97 inches Hg (1015.0 mb)
Winds: from the SSW (200 degrees) at 7 MPH (6 knots; 3.1 m/s)
Visibility: 6 or more miles (10+ km)
Ceiling: at least 12,000 feet AGL
Clouds: few clouds at 3000 feet AGL
Weather: no significant weather observed at this time

METAR text: RJSF 260100Z 21003KT 150V280 9999 FEW025 24/18 Q1016
Conditions at: RJSF (FUKUSHIMA ARPT , JP) observed 0100 UTC 26 June 2019
Temperature: 24.0°C (75°F)
Dewpoint: 18.0°C (64°F) [RH = 69%]
Pressure (altimeter): 30.00 inches Hg (1016.0 mb)
Winds: from the SSW (210 degrees) at 3 MPH (3 knots; 1.5 m/s)
Visibility: 6 or more miles (10+ km)
Ceiling: at least 12,000 feet AGL
Clouds: few clouds at 2500 feet AGL
Weather: no significant weather observed at this time

METAR text: RJSF 260000Z 17006KT 120V230 9999 FEW015 22/18 Q1017
Conditions at: RJSF (FUKUSHIMA ARPT , JP) observed 0000 UTC 26 June 2019
Temperature: 22.0°C (72°F)
Dewpoint: 18.0°C (64°F) [RH = 78%]
Pressure (altimeter): 30.03 inches Hg (1017.0 mb)
Winds: from the S (170 degrees) at 7 MPH (6 knots; 3.1 m/s)
Visibility: 6 or more miles (10+ km)
Ceiling: at least 12,000 feet AGL
Clouds: few clouds at 1500 feet AGL
Weather: no significant weather observed at this time

METAR text: RJSF 252320Z 18004KT 090V260 7000 FEW005 SCT009 BKN010 20/18 Q1017 RMK 1ST005 4ST009 7ST010 A3005
Conditions at: RJSF (FUKUSHIMA ARPT , JP) observed 2320 UTC 25 June 2019
Temperature: 20.0°C (68°F)
Dewpoint: 18.0°C (64°F) [RH = 88%]
Pressure (altimeter): 30.03 inches Hg (1017.0 mb)
Winds: from the S (180 degrees) at 5 MPH (4 knots; 2.1 m/s)
Visibility: 4 miles ( 7 km)
Ceiling: 1000 feet AGL
Clouds: few clouds at 500 feet AGL
scattered clouds at 900 feet AGL
broken clouds at 1000 feet AGL
Weather: no significant weather observed at this time

METAR text: RJSF 252300Z 17004KT 130V210 5000 BR FEW005 BKN008 BKN009 20/18 Q1018
Conditions at: RJSF (FUKUSHIMA ARPT , JP) observed 2300 UTC 25 June 2019
Temperature: 20.0°C (68°F)
Dewpoint: 18.0°C (64°F) [RH = 88%]
Pressure (altimeter): 30.06 inches Hg (1018.0 mb)
Winds: from the S (170 degrees) at 5 MPH (4 knots; 2.1 m/s)
Visibility: 3 miles ( 5 km)
Ceiling: 800 feet AGL
Clouds: few clouds at 500 feet AGL
broken clouds at 800 feet AGL
broken clouds at 900 feet AGL
Weather: BR  (mist)

METAR text: RJSF 252229Z 18005KT 140V220 5000 BR FEW004 SCT005 BKN006 19/17 Q1018 RMK 1ST004 3ST005 6ST006 A3007
Conditions at: RJSF (FUKUSHIMA ARPT , JP) observed 2229 UTC 25 June 2019
Temperature: 19.0°C (66°F)
Dewpoint: 17.0°C (63°F) [RH = 88%]
Pressure (altimeter): 30.06 inches Hg (1018.0 mb)
Winds: from the S (180 degrees) at 6 MPH (5 knots; 2.6 m/s)
Visibility: 3 miles ( 5 km)
Ceiling: 600 feet AGL
Clouds: few clouds at 400 feet AGL
scattered clouds at 500 feet AGL
broken clouds at 600 feet AGL
Weather: BR  (mist)

METAR text: RJSF 252200Z 14005KT 4000 BR FEW004 SCT005 BKN006 18/17 Q1018
Conditions at: RJSF (FUKUSHIMA ARPT , JP) observed 2200 UTC 25 June 2019
Temperature: 18.0°C (64°F)
Dewpoint: 17.0°C (63°F) [RH = 94%]
Pressure (altimeter): 30.06 inches Hg (1018.0 mb)
Winds: from the SE (140 degrees) at 6 MPH (5 knots; 2.6 m/s)
Visibility: 2.49 miles (4.01 km)
Ceiling: 600 feet AGL
Clouds: few clouds at 400 feet AGL
scattered clouds at 500 feet AGL
broken clouds at 600 feet AGL
Weather: BR  (mist)

METAR text: RJSF 252140Z 16004KT 4000 BR FEW003 SCT005 BKN006 18/17 Q1018 RMK 1ST003 3ST005 5ST006 A3007
Conditions at: RJSF (FUKUSHIMA ARPT , JP) observed 2140 UTC 25 June 2019
Temperature: 18.0°C (64°F)
Dewpoint: 17.0°C (63°F) [RH = 94%]
Pressure (altimeter): 30.06 inches Hg (1018.0 mb)
Winds: from the SSE (160 degrees) at 5 MPH (4 knots; 2.1 m/s)
Visibility: 2.49 miles (4.01 km)
Ceiling: 600 feet AGL
Clouds: few clouds at 300 feet AGL
scattered clouds at 500 feet AGL
broken clouds at 600 feet AGL
Weather: BR  (mist)

METAR text: RJSF 251100Z 14005KT 9999 FEW020 19/16 Q1018
Conditions at: RJSF (FUKUSHIMA ARPT , JP) observed 1100 UTC 25 June 2019
Temperature: 19.0°C (66°F)
Dewpoint: 16.0°C (61°F) [RH = 83%]
Pressure (altimeter): 30.06 inches Hg (1018.0 mb)
Winds: from the SE (140 degrees) at 6 MPH (5 knots; 2.6 m/s)
Visibility: 6 or more miles (10+ km)
Ceiling: at least 12,000 feet AGL
Clouds: few clouds at 2000 feet AGL
Weather: no significant weather observed at this time

METAR text: RJSF 251000Z 15005KT 110V180 9999 FEW020 SCT/// 20/17 Q1018
Conditions at: RJSF (FUKUSHIMA ARPT , JP) observed 1000 UTC 25 June 2019
Temperature: 20.0°C (68°F)
Dewpoint: 17.0°C (63°F) [RH = 83%]
Pressure (altimeter): 30.06 inches Hg (1018.0 mb)
Winds: from the SSE (150 degrees) at 6 MPH (5 knots; 2.6 m/s)
Visibility: 6 or more miles (10+ km)
Ceiling: at least 12,000 feet AGL
Clouds: few clouds at 2000 feet AGL
Weather: no significant weather observed at this time

METAR text: RJSF 250900Z 15007KT 9999 FEW025 SCT040 22/17 Q1017
Conditions at: RJSF (FUKUSHIMA ARPT , JP) observed 0900 UTC 25 June 2019
Temperature: 22.0°C (72°F)
Dewpoint: 17.0°C (63°F) [RH = 73%]
Pressure (altimeter): 30.03 inches Hg (1017.0 mb)
Winds: from the SSE (150 degrees) at 8 MPH (7 knots; 3.6 m/s)
Visibility: 6 or more miles (10+ km)
Ceiling: at least 12,000 feet AGL
Clouds: few clouds at 2500 feet AGL
scattered clouds at 4000 feet AGL
Weather: no significant weather observed at this time

METAR text: RJSF 250800Z 15008KT 110V180 9999 FEW025 SCT040 23/17 Q1017
Conditions at: RJSF (FUKUSHIMA ARPT , JP) observed 0800 UTC 25 June 2019
Temperature: 23.0°C (73°F)
Dewpoint: 17.0°C (63°F) [RH = 69%]
Pressure (altimeter): 30.03 inches Hg (1017.0 mb)
Winds: from the SSE (150 degrees) at 9 MPH (8 knots; 4.1 m/s)
Visibility: 6 or more miles (10+ km)
Ceiling: at least 12,000 feet AGL
Clouds: few clouds at 2500 feet AGL
scattered clouds at 4000 feet AGL
Weather: no significant weather observed at this time

METAR text: RJSF 250700Z 15010KT 9999 FEW025 SCT035 23/17 Q1017
Conditions at: RJSF (FUKUSHIMA ARPT , JP) observed 0700 UTC 25 June 2019
Temperature: 23.0°C (73°F)
Dewpoint: 17.0°C (63°F) [RH = 69%]
Pressure (altimeter): 30.03 inches Hg (1017.0 mb)
Winds: from the SSE (150 degrees) at 12 MPH (10 knots; 5.1 m/s)
Visibility: 6 or more miles (10+ km)
Ceiling: at least 12,000 feet AGL
Clouds: few clouds at 2500 feet AGL
scattered clouds at 3500 feet AGL
Weather: no significant weather observed at this time

METAR text: RJSF 250600Z 11007KT 9999 FEW020 SCT080 24/18 Q1017
Conditions at: RJSF (FUKUSHIMA ARPT , JP) observed 0600 UTC 25 June 2019
Temperature: 24.0°C (75°F)
Dewpoint: 18.0°C (64°F) [RH = 69%]
Pressure (altimeter): 30.03 inches Hg (1017.0 mb)
Winds: from the ESE (110 degrees) at 8 MPH (7 knots; 3.6 m/s)
Visibility: 6 or more miles (10+ km)
Ceiling: at least 12,000 feet AGL
Clouds: few clouds at 2000 feet AGL
scattered clouds at 8000 feet AGL
Weather: no significant weather observed at this time

METAR text: RJSF 250500Z 25004KT 230V290 9999 FEW025 SCT040 BKN060 24/14 Q1017
Conditions at: RJSF (FUKUSHIMA ARPT , JP) observed 0500 UTC 25 June 2019
Temperature: 24.0°C (75°F)
Dewpoint: 14.0°C (57°F) [RH = 54%]
Pressure (altimeter): 30.03 inches Hg (1017.0 mb)
Winds: from the WSW (250 degrees) at 5 MPH (4 knots; 2.1 m/s)
Visibility: 6 or more miles (10+ km)
Ceiling: 6000 feet AGL
Clouds: few clouds at 2500 feet AGL
scattered clouds at 4000 feet AGL
broken clouds at 6000 feet AGL
Weather: no significant weather observed at this time

METAR text: RJSF 250400Z 01004KT 330V130 9999 FEW025 SCT040 BKN070 24/15 Q1017
Conditions at: RJSF (FUKUSHIMA ARPT , JP) observed 0400 UTC 25 June 2019
Temperature: 24.0°C (75°F)
Dewpoint: 15.0°C (59°F) [RH = 57%]
Pressure (altimeter): 30.03 inches Hg (1017.0 mb)
Winds: from the N (10 degrees) at 5 MPH (4 knots; 2.1 m/s)
Visibility: 6 or more miles (10+ km)
Ceiling: 7000 feet AGL
Clouds: few clouds at 2500 feet AGL
scattered clouds at 4000 feet AGL
broken clouds at 7000 feet AGL
Weather: no significant weather observed at this time

METAR text: RJSF 250300Z VRB05KT 9999 FEW025 SCT035 BKN070 24/15 Q1018
Conditions at: RJSF (FUKUSHIMA ARPT , JP) observed 0300 UTC 25 June 2019
Temperature: 24.0°C (75°F)
Dewpoint: 15.0°C (59°F) [RH = 57%]
Pressure (altimeter): 30.06 inches Hg (1018.0 mb)
Winds: variable direction winds at 6 MPH (5 knots; 2.6 m/s)
Visibility: 6 or more miles (10+ km)
Ceiling: 7000 feet AGL
Clouds: few clouds at 2500 feet AGL
scattered clouds at 3500 feet AGL
broken clouds at 7000 feet AGL
Weather: no significant weather observed at this time

METAR text: RJSF 250200Z VRB04KT 9999 FEW025 SCT030 23/15 Q1018
Conditions at: RJSF (FUKUSHIMA ARPT , JP) observed 0200 UTC 25 June 2019
Temperature: 23.0°C (73°F)
Dewpoint: 15.0°C (59°F) [RH = 61%]
Pressure (altimeter): 30.06 inches Hg (1018.0 mb)
Winds: variable direction winds at 5 MPH (4 knots; 2.1 m/s)
Visibility: 6 or more miles (10+ km)
Ceiling: at least 12,000 feet AGL
Clouds: few clouds at 2500 feet AGL
scattered clouds at 3000 feet AGL
Weather: no significant weather observed at this time

METAR text: RJSF 250100Z 26004KT 210V300 9999 FEW020 SCT030 21/15 Q1018
Conditions at: RJSF (FUKUSHIMA ARPT , JP) observed 0100 UTC 25 June 2019
Temperature: 21.0°C (70°F)
Dewpoint: 15.0°C (59°F) [RH = 69%]
Pressure (altimeter): 30.06 inches Hg (1018.0 mb)
Winds: from the W (260 degrees) at 5 MPH (4 knots; 2.1 m/s)
Visibility: 6 or more miles (10+ km)
Ceiling: at least 12,000 feet AGL
Clouds: few clouds at 2000 feet AGL
scattered clouds at 3000 feet AGL
Weather: no significant weather observed at this time

METAR text: RJSF 250000Z VRB02KT 9999 FEW020 SCT030 20/16 Q1018
Conditions at: RJSF (FUKUSHIMA ARPT , JP) observed 0000 UTC 25 June 2019
Temperature: 20.0°C (68°F)
Dewpoint: 16.0°C (61°F) [RH = 78%]
Pressure (altimeter): 30.06 inches Hg (1018.0 mb)
Winds: variable direction winds at 2 MPH (2 knots; 1.0 m/s)
Visibility: 6 or more miles (10+ km)
Ceiling: at least 12,000 feet AGL
Clouds: few clouds at 2000 feet AGL
scattered clouds at 3000 feet AGL
Weather: no significant weather observed at this time

METAR text: RJSF 242300Z VRB01KT 9999 FEW006 SCT010 19/16 Q1018
Conditions at: RJSF (FUKUSHIMA ARPT , JP) observed 2300 UTC 24 June 2019
Temperature: 19.0°C (66°F)
Dewpoint: 16.0°C (61°F) [RH = 83%]
Pressure (altimeter): 30.06 inches Hg (1018.0 mb)
Winds: variable direction winds at 1 MPH (1 knots; 0.5 m/s)
Visibility: 6 or more miles (10+ km)
Ceiling: at least 12,000 feet AGL
Clouds: few clouds at 600 feet AGL
scattered clouds at 1000 feet AGL
Weather: no significant weather observed at this time

METAR text: RJSF 242222Z 19003KT 150V210 7000 FEW003 SCT008 BKN010 17/16 Q1018 RMK 1ST003 3ST008 5ST010 A3007
Conditions at: RJSF (FUKUSHIMA ARPT , JP) observed 2222 UTC 24 June 2019
Temperature: 17.0°C (63°F)
Dewpoint: 16.0°C (61°F) [RH = 94%]
Pressure (altimeter): 30.06 inches Hg (1018.0 mb)
Winds: from the S (190 degrees) at 3 MPH (3 knots; 1.5 m/s)
Visibility: 4 miles ( 7 km)
Ceiling: 1000 feet AGL
Clouds: few clouds at 300 feet AGL
scattered clouds at 800 feet AGL
broken clouds at 1000 feet AGL
Weather: no significant weather observed at this time

METAR text: RJSF 242207Z 20004KT 4000 BCFG BR FEW003 SCT004 BKN008 17/16 Q1018 RMK 2ST003 3ST004 6ST008 A3007
Conditions at: RJSF (FUKUSHIMA ARPT , JP) observed 2207 UTC 24 June 2019
Temperature: 17.0°C (63°F)
Dewpoint: 16.0°C (61°F) [RH = 94%]
Pressure (altimeter): 30.06 inches Hg (1018.0 mb)
Winds: from the SSW (200 degrees) at 5 MPH (4 knots; 2.1 m/s)
Visibility: 2.49 miles (4.01 km)
Ceiling: 800 feet AGL
Clouds: few clouds at 300 feet AGL
scattered clouds at 400 feet AGL
broken clouds at 800 feet AGL
Weather: BCFG BR  (patches of fog, mist)

METAR text: RJSF 242200Z 20003KT 150V240 4000 BCFG BR FEW003 SCT004 BKN005 17/16 Q1018
Conditions at: RJSF (FUKUSHIMA ARPT , JP) observed 2200 UTC 24 June 2019
Temperature: 17.0°C (63°F)
Dewpoint: 16.0°C (61°F) [RH = 94%]
Pressure (altimeter): 30.06 inches Hg (1018.0 mb)
Winds: from the SSW (200 degrees) at 3 MPH (3 knots; 1.5 m/s)
Visibility: 2.49 miles (4.01 km)
Ceiling: 500 feet AGL
Clouds: few clouds at 300 feet AGL
scattered clouds at 400 feet AGL
broken clouds at 500 feet AGL
Weather: BCFG BR  (patches of fog, mist)

METAR text: RJSF 242140Z VRB01KT 2000 BCFG BR FEW002 BKN003 16/16 Q1018 RMK 2ST002 7ST003 A3007
Conditions at: RJSF (FUKUSHIMA ARPT , JP) observed 2140 UTC 24 June 2019
Temperature: 16.0°C (61°F)
Dewpoint: 16.0°C (61°F) [RH = 100%]
Pressure (altimeter): 30.06 inches Hg (1018.0 mb)
Winds: variable direction winds at 1 MPH (1 knots; 0.5 m/s)
Visibility: 1.24 miles (2.00 km)
Ceiling: 300 feet AGL
Clouds: few clouds at 200 feet AGL
broken clouds at 300 feet AGL
Weather: BCFG BR  (patches of fog, mist)

Forecast for: RJSF (FUKUSHIMA ARPT , JP)
Text: TAF RJSF 252317Z 2600/2706 20010KT 9999 FEW020 SCT040
Forecast period: 0000 UTC 26 June 2019 to 0600 UTC 27 June 2019
Forecast type: FROM: standard forecast or significant change
Winds: from the SSW (200 degrees) at 12 MPH (10 knots; 5.1 m/s)
Visibility: 6 or more miles 10+ km)
Ceiling: at least 12,000 feet AGL
Clouds: few clouds at 2000 feet AGL
scattered clouds at 4000 feet AGL
Weather: no significant weather forecast for this period
Text: TEMPO 2618/2700 4000 BR FEW003 BKN005 BKN008
Forecast period: 1800 UTC 26 June 2019 to 0000 UTC 27 June 2019
Forecast type: TEMPORARY: The following changes expected for less than half the time period
Visibility: 2.49 miles (4.01 km)
Ceiling: 500 feet AGL
Clouds: few clouds at 300 feet AGL
broken clouds at 500 feet AGL
broken clouds at 800 feet AGL
Weather: BR  (mist)